Time;durP1;ratioP1;P1;durP2;ratioP2;P2;SDS_P1;SDS_P2;PMS_P1;PMS_P2;Temp;Humidity;BMP_temperature;BMP_pressure;BME280_temperature;BME280_humidity;BME280_pressure;Samples;Min_cycle;Max_cycle;Signal;HPM_P1;HPM_P2
2021/11/05 00:01:04;;;;;;;20.87;11.90;;;;;;;;;;5068564;28;20056;-63
2021/11/05 00:03:30;;;;;;;10.07;5.93;;;;;;;;;;5066344;28;20078;-62
2021/11/05 00:05:57;;;;;;;8.83;4.77;;;;;;;;;;5066374;28;20032;-62
2021/11/05 00:08:25;;;;;;;10.40;4.50;;;;;;;;;;5066621;28;20479;-63
2021/11/05 00:10:53;;;;;;;7.00;4.07;;;;;;;;;;5067670;28;20064;-63
2021/11/05 00:13:19;;;;;;;8.23;4.47;;;;;;;;;;5071636;28;20081;-62
2021/11/05 00:15:46;;;;;;;9.17;4.80;;;;;;;;;;5071464;28;20025;-62
2021/11/05 00:18:13;;;;;;;10.07;4.73;;;;;;;;;;5071203;28;20490;-62
2021/11/05 00:20:40;;;;;;;7.53;4.47;;;;;;;;;;5071296;28;20086;-63
2021/11/05 00:23:08;;;;;;;7.17;4.20;;;;;;;;;;5070916;28;20028;-62
2021/11/05 00:25:35;;;;;;;8.17;4.27;;;;;;;;;;5069874;28;20036;-62
2021/11/05 00:28:03;;;;;;;8.90;4.77;;;;;;;;;;5070243;28;20788;-62
2021/11/05 00:30:30;;;;;;;12.03;5.07;;;;;;;;;;5069837;28;20043;-63
2021/11/05 00:32:57;;;;;;;11.93;5.17;;;;;;;;;;5071406;28;20109;-63
2021/11/05 00:35:23;;;;;;;8.70;4.90;;;;;;;;;;5075150;28;20025;-62
2021/11/05 00:37:50;;;;;;;8.77;4.40;;;;;;;;;;5074873;28;20032;-62
2021/11/05 00:40:17;;;;;;;11.57;6.00;;;;;;;;;;5074915;28;20039;-62
2021/11/05 00:42:44;;;;;;;12.73;5.27;;;;;;;;;;5074024;28;20029;-62
2021/11/05 00:45:12;;;;;;;7.87;4.70;;;;;;;;;;5073088;28;20071;-62
2021/11/05 00:47:39;;;;;;;17.13;5.20;;;;;;;;;;5069669;28;20030;-62
2021/11/05 00:50:06;;;;;;;10.90;5.33;;;;;;;;;;5068887;28;20036;-62
2021/11/05 00:52:33;;;;;;;8.83;5.70;;;;;;;;;;5069922;28;20059;-62
2021/11/05 00:55:00;;;;;;;13.73;6.00;;;;;;;;;;5070733;28;20132;-62
2021/11/05 00:57:27;;;;;;;12.03;5.13;;;;;;;;;;5074876;28;20093;-62
2021/11/05 00:59:53;;;;;;;11.50;6.47;;;;;;;;;;5074923;28;20086;-62
2021/11/05 01:02:20;;;;;;;16.57;7.30;;;;;;;;;;5074536;28;20101;-62
2021/11/05 01:04:47;;;;;;;11.80;5.80;;;;;;;;;;5074688;28;20103;-62
2021/11/05 01:07:14;;;;;;;16.13;5.50;;;;;;;;;;5072402;28;20024;-62
2021/11/05 01:09:41;;;;;;;9.13;5.17;;;;;;;;;;5068861;28;20020;-62
2021/11/05 01:12:08;;;;;;;10.40;5.57;;;;;;;;;;5068913;28;20475;-62
2021/11/05 01:14:35;;;;;;;14.10;5.93;;;;;;;;;;5069091;28;20029;-62
2021/11/05 01:17:03;;;;;;;10.23;6.97;;;;;;;;;;5069957;28;20025;-62
2021/11/05 01:19:29;;;;;;;10.10;5.93;;;;;;;;;;5074039;28;20090;-62
2021/11/05 01:21:56;;;;;;;12.77;5.80;;;;;;;;;;5074302;28;20464;-62
2021/11/05 01:24:23;;;;;;;9.10;5.77;;;;;;;;;;5074184;28;20050;-62
2021/11/05 01:26:50;;;;;;;10.40;5.97;;;;;;;;;;5073976;28;20527;-63
2021/11/05 01:29:17;;;;;;;11.23;6.93;;;;;;;;;;5073256;28;20029;-62
2021/11/05 01:31:44;;;;;;;10.30;6.00;;;;;;;;;;5068873;28;20017;-62
2021/11/05 01:34:10;;;;;;;11.13;6.37;;;;;;;;;;5067922;28;20031;-62
2021/11/05 01:36:37;;;;;;;12.10;6.43;;;;;;;;;;5068853;28;20029;-62
2021/11/05 01:39:04;;;;;;;12.47;6.10;;;;;;;;;;5068654;28;20131;-62
2021/11/05 01:41:31;;;;;;;16.80;6.67;;;;;;;;;;5073229;28;20089;-62
2021/11/05 01:43:58;;;;;;;9.07;5.37;;;;;;;;;;5073922;28;20104;-62
2021/11/05 01:46:25;;;;;;;9.13;4.73;;;;;;;;;;5074056;28;20025;-62
2021/11/05 01:48:52;;;;;;;16.37;5.90;;;;;;;;;;5073940;28;20142;-62
2021/11/05 01:51:20;;;;;;;13.40;5.50;;;;;;;;;;5073033;28;20021;-62
2021/11/05 01:53:47;;;;;;;11.43;4.63;;;;;;;;;;5068438;28;20360;-62
2021/11/05 01:56:14;;;;;;;8.23;4.80;;;;;;;;;;5068531;28;20412;-62
2021/11/05 01:58:41;;;;;;;9.67;3.93;;;;;;;;;;5068509;28;20383;-62
2021/11/05 02:01:08;;;;;;;6.20;4.13;;;;;;;;;;5068277;28;20032;-62
2021/11/05 02:03:35;;;;;;;10.37;4.00;;;;;;;;;;5073532;28;20102;-62
2021/11/05 02:06:03;;;;;;;12.37;4.33;;;;;;;;;;5073365;28;20035;-62
2021/11/05 02:08:29;;;;;;;8.83;4.90;;;;;;;;;;5073499;28;20016;-62
2021/11/05 02:10:57;;;;;;;9.20;4.43;;;;;;;;;;5072519;28;20037;-62
2021/11/05 02:13:27;;;;;;;17.77;4.60;;;;;;;;;;5073162;28;20380;-62
2021/11/05 02:15:56;;;;;;;10.80;4.10;;;;;;;;;;5067617;28;20020;-62
2021/11/05 02:18:23;;;;;;;12.60;4.20;;;;;;;;;;5067785;28;20086;-62
2021/11/05 02:20:54;;;;;;;6.70;3.73;;;;;;;;;;5067871;28;20029;-63
2021/11/05 02:23:21;;;;;;;10.57;4.80;;;;;;;;;;5067935;28;20090;-62
2021/11/05 02:25:48;;;;;;;7.43;5.23;;;;;;;;;;5072767;28;20028;-62
2021/11/05 02:28:15;;;;;;;10.90;5.30;;;;;;;;;;5073052;28;20074;-62
2021/11/05 02:30:42;;;;;;;16.53;6.17;;;;;;;;;;5073014;28;20518;-62
2021/11/05 02:33:09;;;;;;;14.40;6.50;;;;;;;;;;5072754;28;20027;-62
2021/11/05 02:35:36;;;;;;;17.43;7.23;;;;;;;;;;5072597;28;20039;-62
2021/11/05 02:38:03;;;;;;;14.13;5.57;;;;;;;;;;5067463;28;20025;-62
2021/11/05 02:40:30;;;;;;;18.27;5.63;;;;;;;;;;5066592;28;20036;-63
2021/11/05 02:42:58;;;;;;;55.23;8.93;;;;;;;;;;5067014;28;20028;-62
2021/11/05 02:45:24;;;;;;;11.43;5.33;;;;;;;;;;5067278;28;20479;-62
2021/11/05 02:47:52;;;;;;;10.80;5.80;;;;;;;;;;5072301;28;20021;-62
2021/11/05 02:50:19;;;;;;;10.23;4.33;;;;;;;;;;5072311;28;20085;-62
2021/11/05 02:52:46;;;;;;;7.43;4.60;;;;;;;;;;5072688;28;20031;-62
2021/11/05 02:55:14;;;;;;;6.47;3.87;;;;;;;;;;5072658;28;20025;-62
2021/11/05 02:57:41;;;;;;;8.10;4.50;;;;;;;;;;5072497;28;20367;-62
2021/11/05 03:00:09;;;;;;;7.70;4.63;;;;;;;;;;5066757;28;20044;-62
2021/11/05 03:02:36;;;;;;;9.33;5.70;;;;;;;;;;5067418;28;20031;-62
2021/11/05 03:05:04;;;;;;;6.73;4.27;;;;;;;;;;5067022;28;20596;-62
2021/11/05 03:07:30;;;;;;;5.90;4.40;;;;;;;;;;5066974;28;20055;-62
2021/11/05 03:09:57;;;;;;;8.83;4.23;;;;;;;;;;5071115;28;20470;-62
2021/11/05 03:12:24;;;;;;;8.03;4.10;;;;;;;;;;5072046;28;20340;-62
2021/11/05 03:14:51;;;;;;;6.97;4.30;;;;;;;;;;5072112;28;20024;-63
2021/11/05 03:17:18;;;;;;;5.47;4.00;;;;;;;;;;5070772;28;20097;-62
2021/11/05 03:19:45;;;;;;;9.17;5.13;;;;;;;;;;5072226;28;20052;-62
2021/11/05 03:22:12;;;;;;;6.23;3.90;;;;;;;;;;5067691;28;20031;-62
2021/11/05 03:24:38;;;;;;;8.17;4.87;;;;;;;;;;5066776;28;20502;-62
2021/11/05 03:27:05;;;;;;;13.10;5.20;;;;;;;;;;5066798;28;20490;-64
2021/11/05 03:29:32;;;;;;;8.50;5.00;;;;;;;;;;5046931;28;20021;-62
2021/11/05 03:31:59;;;;;;;6.70;4.93;;;;;;;;;;5050783;28;20372;-62
2021/11/05 03:34:26;;;;;;;6.67;4.23;;;;;;;;;;5069395;28;20474;-62
2021/11/05 03:36:53;;;;;;;9.80;4.63;;;;;;;;;;5072090;28;20051;-62
2021/11/05 03:39:19;;;;;;;6.37;4.10;;;;;;;;;;5071841;28;20124;-62
2021/11/05 03:41:46;;;;;;;6.77;4.53;;;;;;;;;;5071514;28;20033;-62
2021/11/05 03:44:13;;;;;;;5.13;2.90;;;;;;;;;;5067027;28;20039;-62
2021/11/05 03:46:40;;;;;;;5.00;3.57;;;;;;;;;;5066932;28;20025;-62
2021/11/05 03:49:07;;;;;;;6.33;3.10;;;;;;;;;;5066652;28;20032;-62
2021/11/05 03:51:34;;;;;;;6.23;4.10;;;;;;;;;;5066529;28;20581;-62
2021/11/05 03:54:01;;;;;;;6.43;3.43;;;;;;;;;;5070053;28;20081;-62
2021/11/05 03:56:28;;;;;;;6.80;3.73;;;;;;;;;;5053965;28;20028;-62
2021/11/05 03:58:55;;;;;;;7.83;4.90;;;;;;;;;;5075053;28;20097;-62
2021/11/05 04:01:22;;;;;;;6.60;5.03;;;;;;;;;;5055565;28;20584;-62
2021/11/05 04:03:49;;;;;;;8.40;4.87;;;;;;;;;;5054841;28;20037;-62
2021/11/05 04:06:17;;;;;;;6.27;4.83;;;;;;;;;;5069190;28;20032;-61
2021/11/05 04:08:44;;;;;;;8.93;5.97;;;;;;;;;;5070626;28;20021;-62
2021/11/05 04:11:13;;;;;;;9.30;4.90;;;;;;;;;;5069282;28;20050;-62
2021/11/05 04:13:40;;;;;;;15.07;5.03;;;;;;;;;;5070304;28;20025;-61
2021/11/05 04:16:09;;;;;;;7.00;5.10;;;;;;;;;;5072697;28;20068;-62
2021/11/05 04:18:36;;;;;;;7.00;4.77;;;;;;;;;;5075722;28;20021;-62
2021/11/05 04:21:03;;;;;;;6.03;4.13;;;;;;;;;;5074817;28;20017;-62
2021/11/05 04:23:30;;;;;;;6.67;4.00;;;;;;;;;;5075659;28;20479;-62
2021/11/05 04:25:57;;;;;;;21.43;7.00;;;;;;;;;;5075219;28;20028;-62
2021/11/05 04:28:23;;;;;;;4.83;3.17;;;;;;;;;;5072404;28;20502;-61
2021/11/05 04:30:50;;;;;;;6.83;3.70;;;;;;;;;;5069459;28;20111;-62
2021/11/05 04:33:17;;;;;;;8.27;3.80;;;;;;;;;;5070119;28;20036;-61
2021/11/05 04:35:44;;;;;;;9.63;4.30;;;;;;;;;;5069765;28;20810;-62
2021/11/05 04:38:12;;;;;;;5.57;4.07;;;;;;;;;;5072873;28;20030;-62
2021/11/05 04:40:39;;;;;;;7.23;5.07;;;;;;;;;;5074746;28;20028;-61
2021/11/05 04:43:06;;;;;;;6.07;4.43;;;;;;;;;;5074430;28;20119;-62
2021/11/05 04:45:33;;;;;;;6.97;4.10;;;;;;;;;;5074882;28;20028;-62
2021/11/05 04:48:00;;;;;;;6.77;4.33;;;;;;;;;;5074637;28;20031;-62
2021/11/05 04:50:28;;;;;;;6.83;4.77;;;;;;;;;;5072274;28;20036;-61
2021/11/05 04:52:55;;;;;;;7.30;5.17;;;;;;;;;;5052114;28;20032;-62
2021/11/05 04:55:22;;;;;;;7.80;4.90;;;;;;;;;;5069465;28;20033;-62
2021/11/05 04:57:50;;;;;;;8.03;5.17;;;;;;;;;;5052142;28;20028;-61
2021/11/05 05:00:18;;;;;;;7.77;4.87;;;;;;;;;;5071346;28;20372;-63
2021/11/05 05:02:45;;;;;;;6.13;4.27;;;;;;;;;;5074160;28;20048;-62
2021/11/05 05:05:12;;;;;;;8.23;5.10;;;;;;;;;;5074293;28;20025;-62
2021/11/05 05:07:39;;;;;;;8.47;4.80;;;;;;;;;;5074820;28;20538;-62
2021/11/05 05:10:06;;;;;;;9.83;4.07;;;;;;;;;;5074393;28;20471;-62
2021/11/05 05:12:33;;;;;;;6.37;4.33;;;;;;;;;;5071932;28;20020;-62
2021/11/05 05:15:01;;;;;;;13.70;5.53;;;;;;;;;;5068720;28;20029;-61
2021/11/05 05:17:28;;;;;;;8.70;4.00;;;;;;;;;;5069214;28;20375;-62
2021/11/05 05:19:54;;;;;;;7.23;4.13;;;;;;;;;;5068794;28;20035;-62
2021/11/05 05:22:21;;;;;;;6.23;4.13;;;;;;;;;;5071133;28;20050;-62
2021/11/05 05:24:48;;;;;;;9.73;5.30;;;;;;;;;;5074246;28;20037;-62
2021/11/05 05:27:17;;;;;;;8.10;4.37;;;;;;;;;;5074173;28;20093;-61
2021/11/05 05:29:44;;;;;;;7.50;5.10;;;;;;;;;;5074168;28;20025;-61
2021/11/05 05:32:11;;;;;;;5.40;3.97;;;;;;;;;;5074387;28;20032;-62
2021/11/05 05:34:38;;;;;;;6.73;4.23;;;;;;;;;;5072012;28;20029;-62
2021/11/05 05:37:05;;;;;;;6.30;3.73;;;;;;;;;;5068638;28;20090;-62
2021/11/05 05:39:32;;;;;;;9.40;4.67;;;;;;;;;;5068652;28;20040;-61
2021/11/05 05:41:59;;;;;;;8.13;5.30;;;;;;;;;;5068382;28;20066;-62
2021/11/05 05:44:26;;;;;;;13.33;6.67;;;;;;;;;;5051895;28;20032;-62
2021/11/05 05:46:53;;;;;;;17.47;9.17;;;;;;;;;;5074166;28;20057;-61
2021/11/05 05:49:20;;;;;;;23.27;9.70;;;;;;;;;;5073386;28;20017;-63
2021/11/05 05:51:47;;;;;;;29.47;15.73;;;;;;;;;;5073418;28;20107;-62
2021/11/05 05:54:14;;;;;;;25.63;14.63;;;;;;;;;;5073250;28;20027;-62
2021/11/05 05:56:41;;;;;;;17.77;8.47;;;;;;;;;;5071815;28;20035;-62
2021/11/05 05:59:07;;;;;;;14.63;8.00;;;;;;;;;;5068485;28;20036;-63
2021/11/05 06:01:35;;;;;;;8.03;5.37;;;;;;;;;;5068650;28;20099;-62
2021/11/05 06:04:02;;;;;;;8.63;5.37;;;;;;;;;;5068729;28;20017;-61
2021/11/05 06:06:29;;;;;;;7.00;4.13;;;;;;;;;;5069536;28;20024;-61
2021/11/05 06:08:56;;;;;;;8.53;4.50;;;;;;;;;;5073128;28;20028;-62
2021/11/05 06:11:24;;;;;;;13.30;6.30;;;;;;;;;;5073777;28;20055;-61
2021/11/05 06:13:50;;;;;;;11.33;6.77;;;;;;;;;;5073609;28;20048;-62
2021/11/05 06:16:17;;;;;;;12.47;7.10;;;;;;;;;;5073641;28;20031;-61
2021/11/05 06:18:44;;;;;;;14.30;7.40;;;;;;;;;;5072105;28;20032;-61
2021/11/05 06:21:11;;;;;;;8.60;5.90;;;;;;;;;;5067738;28;20114;-62
2021/11/05 06:23:38;;;;;;;10.10;5.87;;;;;;;;;;5068330;28;20025;-61
2021/11/05 06:26:04;;;;;;;12.13;6.17;;;;;;;;;;5067838;28;20017;-61
2021/11/05 06:28:31;;;;;;;9.43;5.30;;;;;;;;;;5068745;28;20580;-62
2021/11/05 06:30:58;;;;;;;12.93;6.73;;;;;;;;;;5073204;28;20038;-62
2021/11/05 06:33:25;;;;;;;10.03;5.87;;;;;;;;;;5073190;28;20031;-62
2021/11/05 06:35:51;;;;;;;8.33;5.13;;;;;;;;;;5072826;28;20027;-62
2021/11/05 06:38:18;;;;;;;8.50;5.17;;;;;;;;;;5072839;28;20024;-61
2021/11/05 06:40:45;;;;;;;8.93;4.63;;;;;;;;;;5071436;28;20090;-61
2021/11/05 06:43:12;;;;;;;16.20;7.63;;;;;;;;;;5066788;28;20060;-61
2021/11/05 06:45:39;;;;;;;11.33;6.13;;;;;;;;;;5067462;28;20596;-61
2021/11/05 06:48:06;;;;;;;12.47;6.30;;;;;;;;;;5067857;28;20031;-62
2021/11/05 06:50:33;;;;;;;9.07;5.20;;;;;;;;;;5067276;28;20519;-61
2021/11/05 06:52:59;;;;;;;10.03;5.10;;;;;;;;;;5072802;28;20078;-62
2021/11/05 06:55:26;;;;;;;7.73;5.20;;;;;;;;;;5072274;28;20024;-62
2021/11/05 06:57:53;;;;;;;7.33;4.27;;;;;;;;;;5072532;28;20059;-61
2021/11/05 07:00:20;;;;;;;9.63;5.30;;;;;;;;;;5072438;28;20089;-62
2021/11/05 07:02:46;;;;;;;10.60;5.90;;;;;;;;;;5072026;28;20112;-61
2021/11/05 07:05:14;;;;;;;10.27;5.53;;;;;;;;;;5067009;28;20020;-62
2021/11/05 07:07:41;;;;;;;10.13;5.10;;;;;;;;;;5066790;28;20094;-61
2021/11/05 07:10:09;;;;;;;5.83;4.23;;;;;;;;;;5066813;28;20013;-62
2021/11/05 07:12:36;;;;;;;8.37;4.53;;;;;;;;;;5066466;28;20086;-61
2021/11/05 07:15:04;;;;;;;12.33;6.20;;;;;;;;;;5072157;28;20071;-61
2021/11/05 07:17:31;;;;;;;9.70;5.90;;;;;;;;;;5072499;28;20052;-61
2021/11/05 07:19:58;;;;;;;9.93;4.93;;;;;;;;;;5071963;28;20078;-62
2021/11/05 07:22:25;;;;;;;10.20;5.63;;;;;;;;;;5072323;28;20024;-62
2021/11/05 07:24:52;;;;;;;9.00;5.97;;;;;;;;;;5072046;28;20021;-62
2021/11/05 07:27:19;;;;;;;15.30;7.13;;;;;;;;;;5066420;28;20036;-61
2021/11/05 07:29:47;;;;;;;11.77;7.07;;;;;;;;;;5067122;28;20367;-61
2021/11/05 07:32:14;;;;;;;9.57;5.63;;;;;;;;;;5046206;28;20035;-61
2021/11/05 07:34:41;;;;;;;11.57;6.50;;;;;;;;;;5046934;28;20647;-62
2021/11/05 07:37:18;;;;;;;10.57;5.50;;;;;;;;;;5071225;28;20575;-61
2021/11/05 07:39:46;;;;;;;11.10;4.83;;;;;;;;;;5071647;28;20044;-61
2021/11/05 07:42:13;;;;;;;7.17;4.50;;;;;;;;;;5071528;28;20032;-62
2021/11/05 07:44:40;;;;;;;9.40;6.03;;;;;;;;;;5071993;28;20032;-61
2021/11/05 07:47:08;;;;;;;7.83;4.70;;;;;;;;;;5071546;28;20494;-61
2021/11/05 07:49:35;;;;;;;9.30;4.93;;;;;;;;;;5066404;28;20135;-61
2021/11/05 07:52:02;;;;;;;7.67;4.53;;;;;;;;;;5066494;28;20024;-61
2021/11/05 07:54:29;;;;;;;7.50;4.60;;;;;;;;;;5066885;28;20021;-61
2021/11/05 07:56:55;;;;;;;6.60;4.03;;;;;;;;;;5066347;28;20029;-61
2021/11/05 07:59:22;;;;;;;8.30;4.10;;;;;;;;;;5071556;28;20027;-61
2021/11/05 08:01:49;;;;;;;8.30;4.63;;;;;;;;;;5072011;28;20074;-61
2021/11/05 08:04:16;;;;;;;6.90;4.60;;;;;;;;;;5071544;28;20348;-62
2021/11/05 08:06:42;;;;;;;7.43;4.53;;;;;;;;;;5071958;28;20503;-61
2021/11/05 08:09:09;;;;;;;6.30;3.57;;;;;;;;;;5072081;28;20028;-61
2021/11/05 08:11:36;;;;;;;5.53;3.27;;;;;;;;;;5066398;28;20025;-62
2021/11/05 08:14:03;;;;;;;5.60;3.80;;;;;;;;;;5066528;28;20020;-61
2021/11/05 08:16:30;;;;;;;8.90;5.00;;;;;;;;;;5066473;28;20025;-62
2021/11/05 08:18:56;;;;;;;8.73;5.23;;;;;;;;;;5066402;28;20020;-61
2021/11/05 08:21:23;;;;;;;9.00;5.13;;;;;;;;;;5070614;28;20471;-61
2021/11/05 08:23:50;;;;;;;7.30;4.63;;;;;;;;;;5071397;28;20475;-61
2021/11/05 08:26:17;;;;;;;8.47;3.77;;;;;;;;;;5071731;28;20029;-61
2021/11/05 08:28:44;;;;;;;8.03;4.20;;;;;;;;;;5071229;28;20547;-61
2021/11/05 08:31:12;;;;;;;7.20;4.43;;;;;;;;;;5071440;28;20028;-61
2021/11/05 08:33:39;;;;;;;5.37;3.40;;;;;;;;;;5066532;28;20025;-61
2021/11/05 08:36:08;;;;;;;5.37;3.57;;;;;;;;;;5066570;28;20483;-61
2021/11/05 08:38:35;;;;;;;6.17;4.00;;;;;;;;;;5066222;28;20025;-61
2021/11/05 08:41:01;;;;;;;7.70;4.10;;;;;;;;;;5066163;28;20064;-61
2021/11/05 08:43:31;;;;;;;7.87;4.40;;;;;;;;;;5070701;28;20085;-61
2021/11/05 08:46:01;;;;;;;8.27;4.93;;;;;;;;;;5075095;28;20039;-62
2021/11/05 08:48:29;;;;;;;6.90;4.73;;;;;;;;;;5074499;28;20059;-61
2021/11/05 08:50:57;;;;;;;7.53;4.97;;;;;;;;;;5075213;28;20073;-61
2021/11/05 08:53:24;;;;;;;8.57;4.40;;;;;;;;;;5074913;28;20035;-62
2021/11/05 08:55:51;;;;;;;6.27;4.00;;;;;;;;;;5070315;28;20113;-61
2021/11/05 08:58:17;;;;;;;8.03;5.20;;;;;;;;;;5069117;28;20183;-61
2021/11/05 09:00:44;;;;;;;8.00;4.77;;;;;;;;;;5069698;28;20028;-62
2021/11/05 09:03:11;;;;;;;7.90;5.20;;;;;;;;;;5069226;28;20039;-61
2021/11/05 09:05:39;;;;;;;8.03;4.67;;;;;;;;;;5073582;28;20052;-62
2021/11/05 09:08:06;;;;;;;6.50;4.53;;;;;;;;;;5074298;28;20032;-61
2021/11/05 09:10:33;;;;;;;6.07;4.07;;;;;;;;;;5074870;28;20032;-61
2021/11/05 09:13:03;;;;;;;7.33;4.40;;;;;;;;;;5074059;28;20028;-61
2021/11/05 09:15:30;;;;;;;7.47;4.03;;;;;;;;;;5074533;28;20041;-61
2021/11/05 09:17:59;;;;;;;7.90;4.10;;;;;;;;;;5069484;28;20496;-61
2021/11/05 09:20:26;;;;;;;6.93;4.73;;;;;;;;;;5069340;28;20293;-61
2021/11/05 09:22:52;;;;;;;7.10;3.90;;;;;;;;;;5069405;28;20328;-62
2021/11/05 09:25:19;;;;;;;5.87;4.13;;;;;;;;;;5069309;28;20100;-63
2021/11/05 09:27:47;;;;;;;6.80;4.13;;;;;;;;;;5072503;28;20380;-61
2021/11/05 09:30:14;;;;;;;9.93;4.90;;;;;;;;;;5074379;28;20024;-61
2021/11/05 09:32:41;;;;;;;6.43;4.20;;;;;;;;;;5073802;28;20028;-61
2021/11/05 09:35:08;;;;;;;7.03;4.60;;;;;;;;;;5074338;28;20017;-61
2021/11/05 09:37:36;;;;;;;7.23;4.47;;;;;;;;;;5074075;28;20303;-62
2021/11/05 09:40:03;;;;;;;8.10;5.10;;;;;;;;;;5069694;28;20035;-61
2021/11/05 09:42:31;;;;;;;6.33;4.50;;;;;;;;;;5067974;28;20764;-61
2021/11/05 09:44:59;;;;;;;7.67;4.60;;;;;;;;;;5068633;28;20281;-61
2021/11/05 09:47:27;;;;;;;6.97;4.23;;;;;;;;;;5068367;28;20036;-61
2021/11/05 09:49:55;;;;;;;7.77;4.70;;;;;;;;;;5072164;28;20269;-61
2021/11/05 09:52:22;;;;;;;7.70;5.20;;;;;;;;;;5073763;28;20032;-61
2021/11/05 09:54:50;;;;;;;6.37;4.20;;;;;;;;;;5073207;28;20254;-61
2021/11/05 09:57:17;;;;;;;6.67;4.43;;;;;;;;;;5073232;28;20267;-61
2021/11/05 09:59:44;;;;;;;7.23;4.60;;;;;;;;;;5074048;28;20892;-61
2021/11/05 10:02:12;;;;;;;5.10;3.47;;;;;;;;;;5069220;28;20121;-61
2021/11/05 10:04:38;;;;;;;7.97;4.03;;;;;;;;;;5068323;28;20827;-61
2021/11/05 10:07:08;;;;;;;6.33;3.90;;;;;;;;;;5068516;28;20471;-61
2021/11/05 10:09:40;;;;;;;7.87;4.10;;;;;;;;;;5068169;28;20253;-61
2021/11/05 10:12:08;;;;;;;6.63;3.97;;;;;;;;;;5071944;28;20025;-61
2021/11/05 10:14:35;;;;;;;5.57;3.83;;;;;;;;;;5073699;28;20284;-61
2021/11/05 10:17:03;;;;;;;6.43;4.13;;;;;;;;;;5073765;28;20038;-61
2021/11/05 10:19:48;;;;;;;7.87;4.37;;;;;;;;;;5072829;28;20293;-61
2021/11/05 10:22:33;;;;;;;14.75;5.45;;;;;;;;;;5073020;28;20066;-61
2021/11/05 10:25:21;;;;;;;8.88;4.47;;;;;;;;;;5068122;28;20020;-61
2021/11/05 10:27:48;;;;;;;5.33;3.57;;;;;;;;;;5067502;28;20665;-61
2021/11/05 10:30:15;;;;;;;5.47;3.50;;;;;;;;;;5067683;28;20262;-62
2021/11/05 10:32:54;;;;;;;5.60;3.90;;;;;;;;;;5067454;28;20277;-61
2021/11/05 10:35:22;;;;;;;6.70;4.00;;;;;;;;;;5073135;28;20245;-61
2021/11/05 10:37:52;;;;;;;6.00;4.23;;;;;;;;;;5072777;28;20273;-61
2021/11/05 10:40:19;;;;;;;8.60;4.67;;;;;;;;;;5072715;28;20044;-61
2021/11/05 10:42:47;;;;;;;8.67;4.93;;;;;;;;;;5072900;28;20622;-61
2021/11/05 10:45:21;;;;;;;4.90;3.50;;;;;;;;;;5071277;28;20089;-61
2021/11/05 10:47:54;;;;;;;7.03;4.70;;;;;;;;;;5066844;28;20276;-61
2021/11/05 10:50:22;;;;;;;7.40;3.93;;;;;;;;;;5067741;28;20025;-61
2021/11/05 10:53:00;;;;;;;6.73;4.40;;;;;;;;;;5067058;28;20269;-61
2021/11/05 10:55:46;;;;;;;5.40;3.40;;;;;;;;;;5068918;28;20257;-61
2021/11/05 10:58:20;;;;;;;7.03;4.57;;;;;;;;;;5072610;28;20257;-61
2021/11/05 11:00:48;;;;;;;8.13;4.97;;;;;;;;;;5072058;28;20032;-61
2021/11/05 11:03:25;;;;;;;8.97;4.90;;;;;;;;;;5072477;28;20596;-61
2021/11/05 11:05:53;;;;;;;6.33;3.80;;;;;;;;;;5072641;28;20256;-61
2021/11/05 11:08:32;;;;;;;6.70;4.00;;;;;;;;;;5069230;28;20269;-62
2021/11/05 11:11:17;;;;;;;5.80;3.77;;;;;;;;;;5047713;28;20934;-62
2021/11/05 11:13:44;;;;;;;7.32;4.05;;;;;;;;;;5067143;28;20258;-61
2021/11/05 11:16:16;;;;;;;8.23;4.80;;;;;;;;;;5067314;28;20077;-61
2021/11/05 11:18:51;;;;;;;8.47;4.40;;;;;;;;;;5070712;28;20266;-61
2021/11/05 11:21:18;;;;;;;7.13;4.57;;;;;;;;;;5071840;28;20767;-61
2021/11/05 11:23:45;;;;;;;5.97;4.00;;;;;;;;;;5072034;28;20040;-61
2021/11/05 11:26:12;;;;;;;9.30;3.83;;;;;;;;;;5072119;28;20735;-61
2021/11/05 11:28:39;;;;;;;6.97;4.70;;;;;;;;;;5072141;28;20253;-61
2021/11/05 11:31:06;;;;;;;8.63;3.80;;;;;;;;;;5067587;28;20284;-62
2021/11/05 11:33:33;;;;;;;8.63;4.23;;;;;;;;;;5066963;28;20324;-61
2021/11/05 11:36:00;;;;;;;6.87;4.27;;;;;;;;;;5066639;28;20272;-62
2021/11/05 11:38:27;;;;;;;6.57;4.40;;;;;;;;;;5066682;28;20258;-61
2021/11/05 11:40:54;;;;;;;6.60;4.40;;;;;;;;;;5070790;28;20297;-61
2021/11/05 11:43:22;;;;;;;8.03;3.97;;;;;;;;;;5072284;28;20253;-61
2021/11/05 11:45:51;;;;;;;8.27;5.30;;;;;;;;;;5071776;28;20284;-61
2021/11/05 11:48:36;;;;;;;7.93;5.10;;;;;;;;;;5071747;28;20269;-61
2021/11/05 11:51:24;;;;;;;6.82;4.13;;;;;;;;;;5072094;28;20650;-61
2021/11/05 11:53:52;;;;;;;5.33;3.43;;;;;;;;;;5066579;28;20037;-61
2021/11/05 11:56:29;;;;;;;7.83;4.83;;;;;;;;;;5066415;28;20265;-61
2021/11/05 11:59:01;;;;;;;8.83;4.00;;;;;;;;;;5066482;28;20269;-61
2021/11/05 12:01:29;;;;;;;5.93;4.30;;;;;;;;;;5067139;28;20744;-61
2021/11/05 12:04:06;;;;;;;6.80;4.23;;;;;;;;;;5071791;28;20350;-61
2021/11/05 12:06:48;;;;;;;6.73;3.90;;;;;;;;;;5071779;28;20332;-61
2021/11/05 12:09:35;;;;;;;11.30;4.50;;;;;;;;;;5071734;28;20257;-61
2021/11/05 12:12:20;;;;;;;7.83;3.77;;;;;;;;;;5071182;28;20268;-61
2021/11/05 12:15:02;;;;;;;8.60;5.03;;;;;;;;;;5068218;28;20300;-61
2021/11/05 12:17:47;;;;;;;6.47;4.00;;;;;;;;;;5066028;28;20129;-61
2021/11/05 12:20:24;;;;;;;6.07;3.63;;;;;;;;;;5069756;28;20339;-62
2021/11/05 12:23:17;;;;;;;8.73;4.20;;;;;;;;;;5070425;28;20028;-61
2021/11/05 12:25:48;;;;;;;5.17;3.20;;;;;;;;;;5071454;28;20272;-61
2021/11/05 12:28:18;;;;;;;7.43;3.73;;;;;;;;;;5074928;28;20257;-61
2021/11/05 12:30:46;;;;;;;8.00;4.10;;;;;;;;;;5076085;28;20619;-61
2021/11/05 12:33:30;;;;;;;6.90;3.77;;;;;;;;;;5075337;28;20260;-61
2021/11/05 12:35:58;;;;;;;7.57;3.13;;;;;;;;;;5074275;28;20336;-61
2021/11/05 12:38:25;;;;;;;7.40;3.77;;;;;;;;;;5069871;28;20619;-61
2021/11/05 12:41:00;;;;;;;5.40;3.50;;;;;;;;;;5070089;28;20299;-61
2021/11/05 12:43:27;;;;;;;6.28;4.00;;;;;;;;;;5069532;28;20356;-62
2021/11/05 12:45:54;;;;;;;6.33;3.47;;;;;;;;;;5050635;28;20083;-61
2021/11/05 12:48:45;;;;;;;6.73;4.07;;;;;;;;;;5071590;28;20339;-61
2021/11/05 12:51:15;;;;;;;6.27;3.27;;;;;;;;;;5075039;28;20264;-61
2021/11/05 12:53:43;;;;;;;8.87;3.50;;;;;;;;;;5074858;28;20260;-61
2021/11/05 12:56:16;;;;;;;6.57;4.30;;;;;;;;;;5075289;28;20277;-61
2021/11/05 12:58:43;;;;;;;5.27;3.93;;;;;;;;;;5071827;28;20273;-61
2021/11/05 13:01:14;;;;;;;7.63;4.03;;;;;;;;;;5069625;28;20292;-61
2021/11/05 13:03:40;;;;;;;6.27;4.30;;;;;;;;;;5069429;28;20257;-61
2021/11/05 13:06:09;;;;;;;6.60;4.60;;;;;;;;;;5069677;28;20912;-61
2021/11/05 13:08:37;;;;;;;8.87;4.47;;;;;;;;;;5071237;28;20813;-61
2021/11/05 13:11:08;;;;;;;7.10;4.80;;;;;;;;;;5074608;28;20621;-61
2021/11/05 13:13:38;;;;;;;9.70;4.63;;;;;;;;;;5074342;28;20646;-61
2021/11/05 13:16:11;;;;;;;9.70;5.00;;;;;;;;;;5074524;28;20331;-61
2021/11/05 13:18:38;;;;;;;12.70;5.13;;;;;;;;;;5074192;28;20300;-62
2021/11/05 13:21:05;;;;;;;9.13;5.20;;;;;;;;;;5071713;28;20334;-62
2021/11/05 13:23:35;;;;;;;8.73;5.30;;;;;;;;;;5069082;28;20311;-61
2021/11/05 13:26:03;;;;;;;6.93;4.33;;;;;;;;;;5068629;28;20265;-61
2021/11/05 13:28:32;;;;;;;9.90;5.00;;;;;;;;;;5068617;28;20380;-62
2021/11/05 13:31:04;;;;;;;7.63;4.23;;;;;;;;;;5069966;28;20273;-61
2021/11/05 13:33:35;;;;;;;8.43;4.70;;;;;;;;;;5074462;28;20352;-61
2021/11/05 13:36:02;;;;;;;12.83;6.80;;;;;;;;;;5074440;28;20413;-61
2021/11/05 13:38:31;;;;;;;11.93;4.93;;;;;;;;;;5073566;28;20102;-61
2021/11/05 13:40:59;;;;;;;9.33;5.23;;;;;;;;;;5074308;28;20822;-62
2021/11/05 13:43:27;;;;;;;7.60;6.23;;;;;;;;;;5071176;28;20020;-62
2021/11/05 13:45:55;;;;;;;6.67;4.17;;;;;;;;;;5068830;28;20111;-61
2021/11/05 13:48:33;;;;;;;6.53;3.40;;;;;;;;;;5064863;28;20098;-61
2021/11/05 13:51:09;;;;;;;6.83;3.43;;;;;;;;;;5068915;28;20430;-61
2021/11/05 13:53:36;;;;;;;6.90;3.30;;;;;;;;;;5071578;28;20171;-61
2021/11/05 13:56:13;;;;;;;4.07;2.87;;;;;;;;;;5074008;28;20063;-61
2021/11/05 13:58:40;;;;;;;5.67;3.23;;;;;;;;;;5073601;28;20021;-61
2021/11/05 14:01:07;;;;;;;5.27;3.30;;;;;;;;;;5073502;28;20505;-61
2021/11/05 14:03:34;;;;;;;6.07;3.33;;;;;;;;;;5073481;28;20024;-62
2021/11/05 14:06:14;;;;;;;7.47;3.13;;;;;;;;;;5069774;28;20099;-62
2021/11/05 14:08:48;;;;;;;5.93;3.10;;;;;;;;;;5068295;28;20032;-61
2021/11/05 14:11:15;;;;;;;6.37;3.13;;;;;;;;;;5068390;28;20032;-62
2021/11/05 14:13:42;;;;;;;4.60;2.60;;;;;;;;;;5068265;28;20256;-62
2021/11/05 14:16:10;;;;;;;5.53;2.60;;;;;;;;;;5072204;28;20048;-61
2021/11/05 14:18:37;;;;;;;4.00;2.50;;;;;;;;;;5072506;28;20036;-62
2021/11/05 14:21:21;;;;;;;3.90;2.40;;;;;;;;;;5073524;28;20045;-61
2021/11/05 14:23:48;;;;;;;5.07;3.27;;;;;;;;;;5072769;28;20012;-62
2021/11/05 14:26:19;;;;;;;4.77;2.97;;;;;;;;;;5073434;28;20027;-62
2021/11/05 14:28:46;;;;;;;5.93;3.13;;;;;;;;;;5067684;28;20021;-62
2021/11/05 14:31:13;;;;;;;4.70;2.40;;;;;;;;;;5068153;28;20094;-61
2021/11/05 14:33:40;;;;;;;3.77;1.80;;;;;;;;;;5067803;28;20028;-62
2021/11/05 14:36:20;;;;;;;5.10;2.20;;;;;;;;;;5067911;28;20020;-62
2021/11/05 14:38:57;;;;;;;4.80;2.03;;;;;;;;;;5072653;28;20036;-62
2021/11/05 14:41:31;;;;;;;9.73;2.87;;;;;;;;;;5072760;28;20029;-64
2021/11/05 14:44:02;;;;;;;4.97;2.38;;;;;;;;;;5072786;28;20048;-62
2021/11/05 14:46:43;;;;;;;3.53;2.10;;;;;;;;;;5072411;28;20044;-61
2021/11/05 14:49:17;;;;;;;3.73;2.40;;;;;;;;;;5069054;28;20185;-62